65.1°F
Current conditions from King Hill
Updated every 5 minutes
 
  Thursday July 24, 2014

Station Historical Data
Daily Summary for October 24, 2011 Units:  Both    English   Metric
« Previous Day
Next Day »
Daily Weekly Monthly Yearly Custom
  High: Low: Average:
Temperature: 61.7 °F /  16.5 °C 34.4 °F /  1.3 °C 47.2 °F /  8.4 °C
Dew Point: 45.6 °F /  7.6 °C 32.0 °F /  0 °C 39.2 °F /  4 °C
Humidity: 94% 47% 76%
Wind Speed: 15.0mph /  24.1km/h - 4.7mph /  7.6km/h
Wind Gust: 25.0mph /  40.2km/h - -
Wind- - SSW
Pressure: 30.08 in /  1018.5 hPa 29.80 in /  1009 hPa -
Precipitation: 0.35 in /  8.9 mm    
Historical Graphs
 
 
Tabular Data for October 24, 2011
Time Temperature Dew Point Pressure Wind Wind Speed Wind Gust Humidity Daily Rainfall
00:05 37.8 °F /  3.2 °C 34.3 °F /  1.3 °C 30.07in /  1018.2hPa South 1.0mph /  1.6km/h 4.0mph /  6.4km/h 87% 0.00in /  0mm
00:10 38.2 °F /  3.4 °C 34.7 °F /  1.5 °C 30.07in /  1018.2hPa Calm   4.0mph /  6.4km/h 87% 0.00in /  0mm
00:15 38.5 °F /  3.6 °C 34.7 °F /  1.5 °C 30.06in /  1017.8hPa Calm   4.0mph /  6.4km/h 86% 0.00in /  0mm
00:20 38.7 °F /  3.7 °C 34.6 °F /  1.4 °C 30.06in /  1017.8hPa Calm   1.0mph /  1.6km/h 85% 0.00in /  0mm
00:25 38.8 °F /  3.8 °C 34.7 °F /  1.5 °C 30.07in /  1018.2hPa Calm   4.0mph /  6.4km/h 85% 0.00in /  0mm
00:30 38.9 °F /  3.8 °C 34.5 °F /  1.4 °C 30.07in /  1018.2hPa Calm   4.0mph /  6.4km/h 84% 0.00in /  0mm
00:35 38.9 °F /  3.8 °C 34.5 °F /  1.4 °C 30.07in /  1018.2hPa Calm   3.0mph /  4.8km/h 84% 0.00in /  0mm
00:40 38.8 °F /  3.8 °C 34.4 °F /  1.3 °C 30.07in /  1018.2hPa Calm   3.0mph /  4.8km/h 84% 0.00in /  0mm
00:45 38.6 °F /  3.7 °C 34.2 °F /  1.2 °C 30.07in /  1018.2hPa Calm     84% 0.00in /  0mm
00:50 38.4 °F /  3.6 °C 34.0 °F /  1.1 °C 30.07in /  1018.2hPa Calm     84% 0.00in /  0mm
00:55 38.2 °F /  3.4 °C 34.1 °F /  1.2 °C 30.07in /  1018.2hPa Calm     85% 0.00in /  0mm
01:00 37.9 °F /  3.3 °C 33.8 °F /  1 °C 30.07in /  1018.2hPa Calm     85% 0.00in /  0mm
01:05 37.7 °F /  3.2 °C 33.9 °F /  1.1 °C 30.07in /  1018.2hPa Calm     86% 0.00in /  0mm
01:10 37.5 °F /  3.1 °C 33.7 °F /  0.9 °C 30.07in /  1018.2hPa Calm     86% 0.00in /  0mm
01:15 37.5 °F /  3.1 °C 34.0 °F /  1.1 °C 30.07in /  1018.2hPa Calm   1.0mph /  1.6km/h 87% 0.00in /  0mm
01:20 37.6 °F /  3.1 °C 34.1 °F /  1.2 °C 30.07in /  1018.2hPa Calm   1.0mph /  1.6km/h 87% 0.00in /  0mm
01:25 37.7 °F /  3.2 °C 34.2 °F /  1.2 °C 30.08in /  1018.5hPa Calm     87% 0.00in /  0mm
01:30 37.6 °F /  3.1 °C 34.1 °F /  1.2 °C 30.07in /  1018.2hPa Calm     87% 0.00in /  0mm
01:40 37.1 °F /  2.8 °C 33.6 °F /  0.9 °C 30.07in /  1018.2hPa Calm     87% 0.00in /  0mm
01:45 36.8 °F /  2.7 °C 33.3 °F /  0.7 °C 30.07in /  1018.2hPa Calm     87% 0.00in /  0mm
01:50 36.6 °F /  2.6 °C 33.1 °F /  0.6 °C 30.07in /  1018.2hPa Calm     87% 0.00in /  0mm
01:55 36.4 °F /  2.4 °C 32.9 °F /  0.5 °C 30.07in /  1018.2hPa Calm     87% 0.00in /  0mm
02:00 36.2 °F /  2.3 °C 33.0 °F /  0.6 °C 30.07in /  1018.2hPa Calm     88% 0.00in /  0mm
02:05 36.1 °F /  2.3 °C 32.9 °F /  0.5 °C 30.07in /  1018.2hPa Calm     88% 0.00in /  0mm
02:10 36.0 °F /  2.2 °C 32.8 °F /  0.4 °C 30.07in /  1018.2hPa Calm     88% 0.00in /  0mm
02:15 35.9 °F /  2.2 °C 32.7 °F /  0.4 °C 30.07in /  1018.2hPa Calm     88% 0.00in /  0mm
02:20 35.7 °F /  2.1 °C 32.5 °F /  0.3 °C 30.07in /  1018.2hPa Calm     88% 0.00in /  0mm
02:25 35.7 °F /  2.1 °C 32.8 °F /  0.4 °C 30.07in /  1018.2hPa Calm     89% 0.00in /  0mm
02:30 35.8 °F /  2.1 °C 32.9 °F /  0.5 °C 30.06in /  1017.8hPa Calm     89% 0.00in /  0mm
02:40 36.1 °F /  2.3 °C 33.2 °F /  0.7 °C 30.06in /  1017.8hPa Calm     89% 0.00in /  0mm
02:45 36.2 °F /  2.3 °C 33.6 °F /  0.9 °C 30.06in /  1017.8hPa Calm     90% 0.00in /  0mm
02:50 36.6 °F /  2.6 °C 33.9 °F /  1.1 °C 30.06in /  1017.8hPa Calm     90% 0.00in /  0mm
02:55 36.7 °F /  2.6 °C 34.0 °F /  1.1 °C 30.05in /  1017.5hPa Calm     90% 0.00in /  0mm
03:00 36.7 °F /  2.6 °C 33.8 °F /  1 °C 30.05in /  1017.5hPa Calm     89% 0.00in /  0mm
03:10 36.3 °F /  2.4 °C 33.4 °F /  0.8 °C 30.05in /  1017.5hPa Calm     89% 0.00in /  0mm
03:15 36.1 °F /  2.3 °C 33.2 °F /  0.7 °C 30.05in /  1017.5hPa Calm     89% 0.00in /  0mm
03:20 35.8 °F /  2.1 °C 32.9 °F /  0.5 °C 30.05in /  1017.5hPa Calm     89% 0.00in /  0mm
03:25 35.6 °F /  2 °C 32.7 °F /  0.4 °C 30.05in /  1017.5hPa Calm     89% 0.00in /  0mm
03:30 35.4 °F /  1.9 °C 32.5 °F /  0.3 °C 30.05in /  1017.5hPa Calm     89% 0.00in /  0mm
03:35 35.3 °F /  1.8 °C 32.4 °F /  0.2 °C 30.05in /  1017.5hPa Calm     89% 0.00in /  0mm
03:40 35.4 °F /  1.9 °C 32.8 °F /  0.4 °C 30.05in /  1017.5hPa Calm     90% 0.00in /  0mm
03:45 35.4 °F /  1.9 °C 32.8 °F /  0.4 °C 30.05in /  1017.5hPa Calm     90% 0.00in /  0mm
03:50 35.3 °F /  1.8 °C 32.7 °F /  0.4 °C 30.05in /  1017.5hPa Calm     90% 0.00in /  0mm
03:55 35.1 °F /  1.7 °C 32.5 °F /  0.3 °C 30.05in /  1017.5hPa Calm     90% 0.00in /  0mm
04:00 35.0 °F /  1.7 °C 32.4 °F /  0.2 °C 30.05in /  1017.5hPa Calm     90% 0.00in /  0mm
04:05 34.8 °F /  1.6 °C 32.2 °F /  0.1 °C 30.04in /  1017.2hPa Calm     90% 0.00in /  0mm
04:10 34.8 °F /  1.6 °C 32.2 °F /  0.1 °C 30.04in /  1017.2hPa Calm     90% 0.00in /  0mm
04:15 34.9 °F /  1.6 °C 32.3 °F /  0.2 °C 30.04in /  1017.2hPa Calm     90% 0.00in /  0mm
04:20 35.0 °F /  1.7 °C 32.4 °F /  0.2 °C 30.04in /  1017.2hPa Calm     90% 0.00in /  0mm
04:25 35.1 °F /  1.7 °C 32.7 °F /  0.4 °C 30.04in /  1017.2hPa Calm     91% 0.00in /  0mm
04:30 35.0 °F /  1.7 °C 32.6 °F /  0.3 °C 30.04in /  1017.2hPa Calm     91% 0.00in /  0mm
04:40 34.7 °F /  1.5 °C 32.1 °F /  0.1 °C 30.04in /  1017.2hPa Calm     90% 0.00in /  0mm
04:45 34.6 °F /  1.4 °C 32.0 °F /  0 °C 30.04in /  1017.2hPa Calm     90% 0.00in /  0mm
04:55 34.7 °F /  1.5 °C 32.3 °F /  0.2 °C 30.04in /  1017.2hPa Calm   1.0mph /  1.6km/h 91% 0.00in /  0mm
05:00 34.9 °F /  1.6 °C 32.5 °F /  0.3 °C 30.04in /  1017.2hPa Calm   2.0mph /  3.2km/h 91% 0.00in /  0mm
05:05 34.8 °F /  1.6 °C 32.4 °F /  0.2 °C 30.04in /  1017.2hPa Calm   2.0mph /  3.2km/h 91% 0.00in /  0mm
05:10 34.5 °F /  1.4 °C 32.1 °F /  0.1 °C 30.04in /  1017.2hPa Calm   1.0mph /  1.6km/h 91% 0.00in /  0mm
05:15 34.4 °F /  1.3 °C 32.0 °F /  0 °C 30.04in /  1017.2hPa Calm     91% 0.00in /  0mm
05:20 34.4 °F /  1.3 °C 32.0 °F /  0 °C 30.04in /  1017.2hPa Calm     91% 0.00in /  0mm
05:25 34.4 °F /  1.3 °C 32.3 °F /  0.2 °C 30.04in /  1017.2hPa Calm     92% 0.00in /  0mm
05:30 34.4 °F /  1.3 °C 32.3 °F /  0.2 °C 30.04in /  1017.2hPa Calm   1.0mph /  1.6km/h 92% 0.00in /  0mm
05:35 34.6 °F /  1.4 °C 32.5 °F /  0.3 °C 30.04in /  1017.2hPa Calm   2.0mph /  3.2km/h 92% 0.00in /  0mm
05:40 34.8 °F /  1.6 °C 32.7 °F /  0.4 °C 30.04in /  1017.2hPa Calm   2.0mph /  3.2km/h 92% 0.00in /  0mm
05:45 34.5 °F /  1.4 °C 32.4 °F /  0.2 °C 30.04in /  1017.2hPa Calm   2.0mph /  3.2km/h 92% 0.00in /  0mm
05:50 34.8 °F /  1.6 °C 32.7 °F /  0.4 °C 30.04in /  1017.2hPa Calm   2.0mph /  3.2km/h 92% 0.00in /  0mm
05:55 35.2 °F /  1.8 °C 33.4 °F /  0.8 °C 30.04in /  1017.2hPa SSW 1.0mph /  1.6km/h 4.0mph /  6.4km/h 93% 0.00in /  0mm
06:00 35.5 °F /  1.9 °C 33.7 °F /  0.9 °C 30.04in /  1017.2hPa SSW 1.0mph /  1.6km/h 4.0mph /  6.4km/h 93% 0.00in /  0mm
06:05 35.9 °F /  2.2 °C 34.1 °F /  1.2 °C 30.04in /  1017.2hPa SSW 1.0mph /  1.6km/h 5.0mph /  8km/h 93% 0.00in /  0mm
06:10 36.1 °F /  2.3 °C 34.3 °F /  1.3 °C 30.03in /  1016.8hPa SSW 1.0mph /  1.6km/h 5.0mph /  8km/h 93% 0.00in /  0mm
06:15 36.1 °F /  2.3 °C 34.3 °F /  1.3 °C 30.03in /  1016.8hPa Calm   4.0mph /  6.4km/h 93% 0.00in /  0mm
06:20 36.3 °F /  2.4 °C 34.5 °F /  1.4 °C 30.03in /  1016.8hPa Calm   3.0mph /  4.8km/h 93% 0.00in /  0mm
06:25 36.5 °F /  2.5 °C 34.7 °F /  1.5 °C 30.03in /  1016.8hPa SSW 1.0mph /  1.6km/h 4.0mph /  6.4km/h 93% 0.00in /  0mm
06:30 36.9 °F /  2.7 °C 35.1 °F /  1.7 °C 30.03in /  1016.8hPa SSW 1.0mph /  1.6km/h 4.0mph /  6.4km/h 93% 0.00in /  0mm
06:35 37.2 °F /  2.9 °C 35.4 °F /  1.9 °C 30.03in /  1016.8hPa South 1.0mph /  1.6km/h 5.0mph /  8km/h 93% 0.00in /  0mm
06:40 37.9 °F /  3.3 °C 36.1 °F /  2.3 °C 30.03in /  1016.8hPa SSW 2.0mph /  3.2km/h 6.0mph /  9.7km/h 93% 0.00in /  0mm
06:45 38.6 °F /  3.7 °C 36.5 °F /  2.5 °C 30.02in /  1016.5hPa SSW 2.0mph /  3.2km/h 7.0mph /  11.3km/h 92% 0.00in /  0mm
06:50 39.2 °F /  4 °C 36.2 °F /  2.3 °C 30.02in /  1016.5hPa South 2.0mph /  3.2km/h 9.0mph /  14.5km/h 89% 0.00in /  0mm
06:55 39.7 °F /  4.3 °C 36.2 °F /  2.3 °C 30.02in /  1016.5hPa SSW 1.0mph /  1.6km/h 9.0mph /  14.5km/h 87% 0.00in /  0mm
07:00 40.0 °F /  4.4 °C 35.9 °F /  2.2 °C 30.02in /  1016.5hPa SSW 3.0mph /  4.8km/h 8.0mph /  12.9km/h 85% 0.00in /  0mm
07:05 40.2 °F /  4.6 °C 35.8 °F /  2.1 °C 30.02in /  1016.5hPa SSW 3.0mph /  4.8km/h 8.0mph /  12.9km/h 84% 0.00in /  0mm
07:10 40.2 °F /  4.6 °C 35.5 °F /  1.9 °C 30.02in /  1016.5hPa SSW 2.0mph /  3.2km/h 6.0mph /  9.7km/h 83% 0.00in /  0mm
07:15 40.5 °F /  4.7 °C 35.4 °F /  1.9 °C 30.02in /  1016.5hPa Calm   6.0mph /  9.7km/h 82% 0.00in /  0mm
07:20 40.6 °F /  4.8 °C 35.5 °F /  1.9 °C 30.02in /  1016.5hPa SSW 1.0mph /  1.6km/h 6.0mph /  9.7km/h 82% 0.00in /  0mm
07:25 40.6 °F /  4.8 °C 35.2 °F /  1.8 °C 30.02in /  1016.5hPa SSW 1.0mph /  1.6km/h 5.0mph /  8km/h 81% 0.00in /  0mm
07:30 40.6 °F /  4.8 °C 35.2 °F /  1.8 °C 30.02in /  1016.5hPa SSW 2.0mph /  3.2km/h 6.0mph /  9.7km/h 81% 0.00in /  0mm
07:35 40.8 °F /  4.9 °C 35.4 °F /  1.9 °C 30.02in /  1016.5hPa Calm   6.0mph /  9.7km/h 81% 0.00in /  0mm
07:40 41.0 °F /  5 °C 35.3 °F /  1.8 °C 30.02in /  1016.5hPa Calm   6.0mph /  9.7km/h 80% 0.00in /  0mm
07:45 41.0 °F /  5 °C 35.3 °F /  1.8 °C 30.02in /  1016.5hPa SSW 2.0mph /  3.2km/h 6.0mph /  9.7km/h 80% 0.00in /  0mm
07:50 40.9 °F /  4.9 °C 35.2 °F /  1.8 °C 30.02in /  1016.5hPa SSW 2.0mph /  3.2km/h 6.0mph /  9.7km/h 80% 0.00in /  0mm
07:55 41.1 °F /  5.1 °C 35.4 °F /  1.9 °C 30.02in /  1016.5hPa SSW 2.0mph /  3.2km/h 7.0mph /  11.3km/h 80% 0.00in /  0mm
08:00 41.4 °F /  5.2 °C 35.7 °F /  2.1 °C 30.02in /  1016.5hPa South 2.0mph /  3.2km/h 7.0mph /  11.3km/h 80% 0.00in /  0mm
08:05 41.8 °F /  5.4 °C 35.8 °F /  2.1 °C 30.02in /  1016.5hPa SSW 2.0mph /  3.2km/h 7.0mph /  11.3km/h 79% 0.00in /  0mm
08:10 42.0 °F /  5.6 °C 36.0 °F /  2.2 °C 30.02in /  1016.5hPa SSW 4.0mph /  6.4km/h 7.0mph /  11.3km/h 79% 0.00in /  0mm
08:15 42.2 °F /  5.7 °C 35.8 °F /  2.1 °C 30.01in /  1016.1hPa SSW 1.0mph /  1.6km/h 7.0mph /  11.3km/h 78% 0.00in /  0mm
08:20 42.3 °F /  5.7 °C 35.9 °F /  2.2 °C 30.01in /  1016.1hPa Calm   6.0mph /  9.7km/h 78% 0.00in /  0mm
08:25 42.3 °F /  5.7 °C 35.9 °F /  2.2 °C 30.02in /  1016.5hPa South 1.0mph /  1.6km/h 5.0mph /  8km/h 78% 0.00in /  0mm
08:30 42.4 °F /  5.8 °C 36.0 °F /  2.2 °C 30.02in /  1016.5hPa SSW 2.0mph /  3.2km/h 5.0mph /  8km/h 78% 0.00in /  0mm
08:40 42.9 °F /  6.1 °C 36.5 °F /  2.5 °C 30.01in /  1016.1hPa Calm   6.0mph /  9.7km/h 78% 0.00in /  0mm
08:45 43.0 °F /  6.1 °C 36.3 °F /  2.4 °C 30.01in /  1016.1hPa SSW 1.0mph /  1.6km/h 4.0mph /  6.4km/h 77% 0.00in /  0mm
08:50 43.2 °F /  6.2 °C 36.5 °F /  2.5 °C 30.01in /  1016.1hPa Calm   4.0mph /  6.4km/h 77% 0.00in /  0mm
08:55 43.4 °F /  6.3 °C 36.7 °F /  2.6 °C 30.01in /  1016.1hPa Calm   5.0mph /  8km/h 77% 0.00in /  0mm
09:00 43.5 °F /  6.4 °C 36.8 °F /  2.7 °C 30.01in /  1016.1hPa Calm   5.0mph /  8km/h 77% 0.00in /  0mm
09:05 43.5 °F /  6.4 °C 37.1 °F /  2.8 °C 30.01in /  1016.1hPa Calm   4.0mph /  6.4km/h 78% 0.00in /  0mm
09:10 43.4 °F /  6.3 °C 36.7 °F /  2.6 °C 30.02in /  1016.5hPa SW 1.0mph /  1.6km/h 5.0mph /  8km/h 77% 0.00in /  0mm
09:15 44.0 °F /  6.7 °C 37.3 °F /  2.9 °C 30.01in /  1016.1hPa SSW 3.0mph /  4.8km/h 7.0mph /  11.3km/h 77% 0.00in /  0mm
09:20 44.7 °F /  7.1 °C 37.3 °F /  2.9 °C 30.01in /  1016.1hPa Calm   7.0mph /  11.3km/h 75% 0.00in /  0mm
09:25 45.0 °F /  7.2 °C 37.2 °F /  2.9 °C 30.01in /  1016.1hPa SSW 3.0mph /  4.8km/h 7.0mph /  11.3km/h 74% 0.00in /  0mm
09:30 45.3 °F /  7.4 °C 37.8 °F /  3.2 °C 30.01in /  1016.1hPa SSW 2.0mph /  3.2km/h 7.0mph /  11.3km/h 75% 0.00in /  0mm
09:35 45.8 °F /  7.7 °C 38.3 °F /  3.5 °C 30.01in /  1016.1hPa SSW 2.0mph /  3.2km/h 7.0mph /  11.3km/h 75% 0.00in /  0mm
09:40 46.2 °F /  7.9 °C 38.4 °F /  3.6 °C 30.01in /  1016.1hPa SSW 1.0mph /  1.6km/h 7.0mph /  11.3km/h 74% 0.00in /  0mm
09:45 46.7 °F /  8.2 °C 38.5 °F /  3.6 °C 30.01in /  1016.1hPa SSW 2.0mph /  3.2km/h 7.0mph /  11.3km/h 73% 0.00in /  0mm
09:50 47.5 °F /  8.6 °C 38.9 °F /  3.8 °C 30.01in /  1016.1hPa SSW 5.0mph /  8km/h 8.0mph /  12.9km/h 72% 0.00in /  0mm
09:55 47.9 °F /  8.8 °C 39.3 °F /  4.1 °C 30.01in /  1016.1hPa SSW 5.0mph /  8km/h 14.0mph /  22.5km/h 72% 0.00in /  0mm
10:00 48.3 °F /  9.1 °C 39.7 °F /  4.3 °C 30.01in /  1016.1hPa South 1.0mph /  1.6km/h 14.0mph /  22.5km/h 72% 0.00in /  0mm
10:05 48.9 °F /  9.4 °C 39.9 °F /  4.4 °C 30.01in /  1016.1hPa SW 1.0mph /  1.6km/h 12.0mph /  19.3km/h 71% 0.00in /  0mm
10:15 50.0 °F /  10 °C 41.0 °F /  5 °C 30.00in /  1015.8hPa South 3.0mph /  4.8km/h 9.0mph /  14.5km/h 71% 0.00in /  0mm
10:20 50.5 °F /  10.3 °C 41.1 °F /  5.1 °C 30.00in /  1015.8hPa SSW 4.0mph /  6.4km/h 10.0mph /  16.1km/h 70% 0.00in /  0mm
10:25 50.9 °F /  10.5 °C 41.1 °F /  5.1 °C 30.00in /  1015.8hPa SSW 4.0mph /  6.4km/h 10.0mph /  16.1km/h 69% 0.00in /  0mm
10:35 51.3 °F /  10.7 °C 40.3 °F /  4.6 °C 30.00in /  1015.8hPa South 7.0mph /  11.3km/h 15.0mph /  24.1km/h 66% 0.00in /  0mm
10:40 51.4 °F /  10.8 °C 40.8 °F /  4.9 °C 30.00in /  1015.8hPa South 5.0mph /  8km/h 15.0mph /  24.1km/h 67% 0.00in /  0mm
10:45 51.5 °F /  10.8 °C 40.9 °F /  4.9 °C 30.00in /  1015.8hPa South 4.0mph /  6.4km/h 13.0mph /  20.9km/h 67% 0.00in /  0mm
10:50 52.1 °F /  11.2 °C 41.1 °F /  5.1 °C 30.00in /  1015.8hPa South 4.0mph /  6.4km/h 13.0mph /  20.9km/h 66% 0.00in /  0mm
10:55 52.6 °F /  11.4 °C 40.4 °F /  4.7 °C 30.00in /  1015.8hPa South 5.0mph /  8km/h 11.0mph /  17.7km/h 63% 0.00in /  0mm
11:00 52.9 °F /  11.6 °C 41.1 °F /  5.1 °C 30.00in /  1015.8hPa South 6.0mph /  9.7km/h 12.0mph /  19.3km/h 64% 0.00in /  0mm
11:05 53.5 °F /  11.9 °C 41.6 °F /  5.3 °C 29.99in /  1015.5hPa South 1.0mph /  1.6km/h 12.0mph /  19.3km/h 64% 0.00in /  0mm
11:10 54.4 °F /  12.4 °C 40.8 °F /  4.9 °C 29.99in /  1015.5hPa SSW 3.0mph /  4.8km/h 12.0mph /  19.3km/h 60% 0.00in /  0mm
11:15 54.6 °F /  12.6 °C 41.4 °F /  5.2 °C 29.99in /  1015.5hPa South 3.0mph /  4.8km/h 10.0mph /  16.1km/h 61% 0.00in /  0mm
11:20 55.0 °F /  12.8 °C 41.8 °F /  5.4 °C 29.98in /  1015.1hPa SW 3.0mph /  4.8km/h 11.0mph /  17.7km/h 61% 0.00in /  0mm
11:25 55.0 °F /  12.8 °C 40.9 °F /  4.9 °C 29.98in /  1015.1hPa SSW 6.0mph /  9.7km/h 13.0mph /  20.9km/h 59% 0.00in /  0mm
11:30 55.1 °F /  12.8 °C 40.6 °F /  4.8 °C 29.98in /  1015.1hPa South 6.0mph /  9.7km/h 13.0mph /  20.9km/h 58% 0.00in /  0mm
11:35 55.7 °F /  13.2 °C 41.6 °F /  5.3 °C 29.98in /  1015.1hPa South 5.0mph /  8km/h 11.0mph /  17.7km/h 59% 0.00in /  0mm
11:40 56.1 °F /  13.4 °C 41.5 °F /  5.3 °C 29.98in /  1015.1hPa South 7.0mph /  11.3km/h 11.0mph /  17.7km/h 58% 0.00in /  0mm
11:45 56.1 °F /  13.4 °C 40.2 °F /  4.6 °C 29.98in /  1015.1hPa SW 7.0mph /  11.3km/h 15.0mph /  24.1km/h 55% 0.00in /  0mm
11:55 56.3 °F /  13.5 °C 41.7 °F /  5.4 °C 29.97in /  1014.8hPa SSW 3.0mph /  4.8km/h 18.0mph /  29km/h 58% 0.00in /  0mm
12:00 56.5 °F /  13.6 °C 41.0 °F /  5 °C 29.96in /  1014.4hPa SSW 10.0mph /  16.1km/h 17.0mph /  27.4km/h 56% 0.00in /  0mm
12:10 57.6 °F /  14.2 °C 41.1 °F /  5.1 °C 29.95in /  1014.1hPa SSW 8.0mph /  12.9km/h 15.0mph /  24.1km/h 54% 0.00in /  0mm
12:15 57.4 °F /  14.1 °C 40.9 °F /  4.9 °C 29.95in /  1014.1hPa SSW 10.0mph /  16.1km/h 17.0mph /  27.4km/h 54% 0.00in /  0mm
12:20 57.8 °F /  14.3 °C 42.2 °F /  5.7 °C 29.95in /  1014.1hPa SSW 5.0mph /  8km/h 17.0mph /  27.4km/h 56% 0.00in /  0mm
12:25 58.7 °F /  14.8 °C 42.6 °F /  5.9 °C 29.94in /  1013.8hPa South 4.0mph /  6.4km/h 11.0mph /  17.7km/h 55% 0.00in /  0mm
12:30 59.0 °F /  15 °C 43.3 °F /  6.3 °C 29.94in /  1013.8hPa SSW 6.0mph /  9.7km/h 12.0mph /  19.3km/h 56% 0.00in /  0mm
12:35 58.7 °F /  14.8 °C 41.6 °F /  5.3 °C 29.93in /  1013.4hPa SSW 9.0mph /  14.5km/h 17.0mph /  27.4km/h 53% 0.00in /  0mm
12:40 58.5 °F /  14.7 °C 42.4 °F /  5.8 °C 29.93in /  1013.4hPa SSW 6.0mph /  9.7km/h 17.0mph /  27.4km/h 55% 0.00in /  0mm
12:45 58.8 °F /  14.9 °C 42.2 °F /  5.7 °C 29.93in /  1013.4hPa SW 8.0mph /  12.9km/h 17.0mph /  27.4km/h 54% 0.00in /  0mm
12:50 59.0 °F /  15 °C 41.9 °F /  5.5 °C 29.92in /  1013.1hPa SSW 8.0mph /  12.9km/h 16.0mph /  25.7km/h 53% 0.00in /  0mm
12:55 59.0 °F /  15 °C 41.9 °F /  5.5 °C 29.92in /  1013.1hPa SSW 9.0mph /  14.5km/h 17.0mph /  27.4km/h 53% 0.00in /  0mm
13:00 59.0 °F /  15 °C 41.4 °F /  5.2 °C 29.91in /  1012.8hPa SSW 9.0mph /  14.5km/h 22.0mph /  35.4km/h 52% 0.00in /  0mm
13:05 59.3 °F /  15.2 °C 42.2 °F /  5.7 °C 29.91in /  1012.8hPa SSW 7.0mph /  11.3km/h 22.0mph /  35.4km/h 53% 0.00in /  0mm
13:10 59.5 °F /  15.3 °C 42.9 °F /  6.1 °C 29.91in /  1012.8hPa SSW 7.0mph /  11.3km/h 20.0mph /  32.2km/h 54% 0.00in /  0mm
13:20 59.4 °F /  15.2 °C 40.8 °F /  4.9 °C 29.90in /  1012.4hPa SSW 9.0mph /  14.5km/h 18.0mph /  29km/h 50% 0.00in /  0mm
13:25 59.6 °F /  15.3 °C 42.0 °F /  5.6 °C 29.89in /  1012.1hPa SSW 8.0mph /  12.9km/h 19.0mph /  30.6km/h 52% 0.00in /  0mm
13:30 59.8 °F /  15.4 °C 41.6 °F /  5.3 °C 29.89in /  1012.1hPa SW 10.0mph /  16.1km/h 19.0mph /  30.6km/h 51% 0.00in /  0mm
13:40 60.4 °F /  15.8 °C 41.7 °F /  5.4 °C 29.89in /  1012.1hPa SSW 9.0mph /  14.5km/h 18.0mph /  29km/h 50% 0.00in /  0mm
13:45 60.5 °F /  15.8 °C 42.3 °F /  5.7 °C 29.88in /  1011.7hPa SSW 8.0mph /  12.9km/h 18.0mph /  29km/h 51% 0.00in /  0mm
13:50 61.0 °F /  16.1 °C 42.8 °F /  6 °C 29.88in /  1011.7hPa SW 9.0mph /  14.5km/h 16.0mph /  25.7km/h 51% 0.00in /  0mm
13:55 61.4 °F /  16.3 °C 42.1 °F /  5.6 °C 29.87in /  1011.4hPa SW 10.0mph /  16.1km/h 18.0mph /  29km/h 49% 0.00in /  0mm
14:00 61.5 °F /  16.4 °C 41.6 °F /  5.3 °C 29.87in /  1011.4hPa South 6.0mph /  9.7km/h 18.0mph /  29km/h 48% 0.00in /  0mm
14:05 61.7 °F /  16.5 °C 41.3 °F /  5.2 °C 29.87in /  1011.4hPa SSW 10.0mph /  16.1km/h 20.0mph /  32.2km/h 47% 0.00in /  0mm
14:10 61.4 °F /  16.3 °C 41.5 °F /  5.3 °C 29.86in /  1011.1hPa SSW 9.0mph /  14.5km/h 20.0mph /  32.2km/h 48% 0.00in /  0mm
14:15 61.3 °F /  16.3 °C 41.5 °F /  5.3 °C 29.86in /  1011.1hPa SSW 7.0mph /  11.3km/h 18.0mph /  29km/h 48% 0.00in /  0mm
14:20 61.2 °F /  16.2 °C 41.4 °F /  5.2 °C 29.86in /  1011.1hPa SSW 10.0mph /  16.1km/h 21.0mph /  33.8km/h 48% 0.00in /  0mm
14:25 60.7 °F /  15.9 °C 40.9 °F /  4.9 °C 29.86in /  1011.1hPa SSW 10.0mph /  16.1km/h 22.0mph /  35.4km/h 48% 0.00in /  0mm
14:30 59.7 °F /  15.4 °C 40.0 °F /  4.4 °C 29.86in /  1011.1hPa SSW 8.0mph /  12.9km/h 22.0mph /  35.4km/h 48% 0.00in /  0mm
14:35 59.7 °F /  15.4 °C 41.0 °F /  5 °C 29.86in /  1011.1hPa SSW 7.0mph /  11.3km/h 18.0mph /  29km/h 50% 0.00in /  0mm
14:40 60.6 °F /  15.9 °C 41.9 °F /  5.5 °C 29.85in /  1010.7hPa SSW 5.0mph /  8km/h 18.0mph /  29km/h 50% 0.00in /  0mm
14:45 60.2 °F /  15.7 °C 40.4 °F /  4.7 °C 29.85in /  1010.7hPa SSW 6.0mph /  9.7km/h 18.0mph /  29km/h 48% 0.00in /  0mm
14:50 59.0 °F /  15 °C 40.4 °F /  4.7 °C 29.86in /  1011.1hPa SSW 7.0mph /  11.3km/h 18.0mph /  29km/h 50% 0.00in /  0mm
14:55 58.7 °F /  14.8 °C 40.6 °F /  4.8 °C 29.85in /  1010.7hPa SW 7.0mph /  11.3km/h 15.0mph /  24.1km/h 51% 0.00in /  0mm
15:00 58.5 °F /  14.7 °C 40.9 °F /  4.9 °C 29.85in /  1010.7hPa SSW 7.0mph /  11.3km/h 18.0mph /  29km/h 52% 0.00in /  0mm
15:05 58.6 °F /  14.8 °C 40.5 °F /  4.7 °C 29.85in /  1010.7hPa SW 14.0mph /  22.5km/h 25.0mph /  40.2km/h 51% 0.00in /  0mm
15:10 58.7 °F /  14.8 °C 41.1 °F /  5.1 °C 29.85in /  1010.7hPa SSW 5.0mph /  8km/h 25.0mph /  40.2km/h 52% 0.00in /  0mm
15:15 58.9 °F /  14.9 °C 40.3 °F /  4.6 °C 29.85in /  1010.7hPa SSW 11.0mph /  17.7km/h 19.0mph /  30.6km/h 50% 0.00in /  0mm
15:20 59.5 °F /  15.3 °C 41.4 °F /  5.2 °C 29.84in /  1010.4hPa SSW 8.0mph /  12.9km/h 19.0mph /  30.6km/h 51% 0.00in /  0mm
15:25 60.9 °F /  16.1 °C 41.6 °F /  5.3 °C 29.84in /  1010.4hPa SSW 10.0mph /  16.1km/h 19.0mph /  30.6km/h 49% 0.00in /  0mm
15:30 61.3 °F /  16.3 °C 41.5 °F /  5.3 °C 29.84in /  1010.4hPa SSW 9.0mph /  14.5km/h 21.0mph /  33.8km/h 48% 0.00in /  0mm
15:35 60.4 °F /  15.8 °C 41.2 °F /  5.1 °C 29.84in /  1010.4hPa SSW 10.0mph /  16.1km/h 21.0mph /  33.8km/h 49% 0.00in /  0mm
15:40 60.0 °F /  15.6 °C 41.3 °F /  5.2 °C 29.83in /  1010hPa SSW 6.0mph /  9.7km/h 17.0mph /  27.4km/h 50% 0.00in /  0mm
15:45 59.4 °F /  15.2 °C 40.8 °F /  4.9 °C 29.83in /  1010hPa SSW 7.0mph /  11.3km/h 21.0mph /  33.8km/h 50% 0.00in /  0mm
15:50 58.9 °F /  14.9 °C 40.8 °F /  4.9 °C 29.83in /  1010hPa SSW 10.0mph /  16.1km/h 21.0mph /  33.8km/h 51% 0.00in /  0mm
15:55 58.5 °F /  14.7 °C 40.4 °F /  4.7 °C 29.83in /  1010hPa SSW 5.0mph /  8km/h 19.0mph /  30.6km/h 51% 0.00in /  0mm
16:00 58.4 °F /  14.7 °C 40.9 °F /  4.9 °C 29.83in /  1010hPa SSW 5.0mph /  8km/h 19.0mph /  30.6km/h 52% 0.00in /  0mm
16:05 58.4 °F /  14.7 °C 41.3 °F /  5.2 °C 29.83in /  1010hPa SW 4.0mph /  6.4km/h 13.0mph /  20.9km/h 53% 0.00in /  0mm
16:10 58.3 °F /  14.6 °C 41.3 °F /  5.2 °C 29.83in /  1010hPa SSW 7.0mph /  11.3km/h 12.0mph /  19.3km/h 53% 0.00in /  0mm
16:20 58.1 °F /  14.5 °C 41.1 °F /  5.1 °C 29.83in /  1010hPa SSW 7.0mph /  11.3km/h 16.0mph /  25.7km/h 53% 0.00in /  0mm
16:25 58.0 °F /  14.4 °C 41.0 °F /  5 °C 29.83in /  1010hPa SSW 7.0mph /  11.3km/h 16.0mph /  25.7km/h 53% 0.00in /  0mm
16:30 57.8 °F /  14.3 °C 41.3 °F /  5.2 °C 29.83in /  1010hPa SW 7.0mph /  11.3km/h 18.0mph /  29km/h 54% 0.00in /  0mm
16:35 57.7 °F /  14.3 °C 41.2 °F /  5.1 °C 29.82in /  1009.7hPa SSW 7.0mph /  11.3km/h 18.0mph /  29km/h 54% 0.00in /  0mm
16:40 57.6 °F /  14.2 °C 41.1 °F /  5.1 °C 29.82in /  1009.7hPa SSW 8.0mph /  12.9km/h 15.0mph /  24.1km/h 54% 0.00in /  0mm
16:45 57.5 °F /  14.2 °C 41.5 °F /  5.3 °C 29.82in /  1009.7hPa SSW 3.0mph /  4.8km/h 14.0mph /  22.5km/h 55% 0.00in /  0mm
16:50 57.3 °F /  14.1 °C 41.7 °F /  5.4 °C 29.82in /  1009.7hPa SSW 5.0mph /  8km/h 14.0mph /  22.5km/h 56% 0.00in /  0mm
16:55 57.1 °F /  13.9 °C 41.1 °F /  5.1 °C 29.82in /  1009.7hPa SSW 7.0mph /  11.3km/h 13.0mph /  20.9km/h 55% 0.00in /  0mm
17:00 57.1 °F /  13.9 °C 41.6 °F /  5.3 °C 29.82in /  1009.7hPa SSW 4.0mph /  6.4km/h 13.0mph /  20.9km/h 56% 0.00in /  0mm
17:05 57.1 °F /  13.9 °C 41.1 °F /  5.1 °C 29.81in /  1009.4hPa SSW 6.0mph /  9.7km/h 12.0mph /  19.3km/h 55% 0.00in /  0mm
17:10 57.1 °F /  13.9 °C 41.6 °F /  5.3 °C 29.81in /  1009.4hPa SSW 5.0mph /  8km/h 12.0mph /  19.3km/h 56% 0.00in /  0mm
17:15 56.9 °F /  13.8 °C 41.4 °F /  5.2 °C 29.81in /  1009.4hPa SSW 3.0mph /  4.8km/h 10.0mph /  16.1km/h 56% 0.00in /  0mm
17:25 56.6 °F /  13.7 °C 41.6 °F /  5.3 °C 29.81in /  1009.4hPa SSW 5.0mph /  8km/h 11.0mph /  17.7km/h 57% 0.00in /  0mm
17:30 56.7 °F /  13.7 °C 41.6 °F /  5.3 °C 29.81in /  1009.4hPa SSW 5.0mph /  8km/h 13.0mph /  20.9km/h 57% 0.00in /  0mm
17:35 56.7 °F /  13.7 °C 41.6 °F /  5.3 °C 29.81in /  1009.4hPa SW 6.0mph /  9.7km/h 13.0mph /  20.9km/h 57% 0.00in /  0mm
17:45 56.4 °F /  13.6 °C 42.3 °F /  5.7 °C 29.81in /  1009.4hPa SSW 4.0mph /  6.4km/h 11.0mph /  17.7km/h 59% 0.00in /  0mm
17:50 56.2 °F /  13.4 °C 42.1 °F /  5.6 °C 29.81in /  1009.4hPa SSW 5.0mph /  8km/h 14.0mph /  22.5km/h 59% 0.00in /  0mm
17:55 56.1 °F /  13.4 °C 42.4 °F /  5.8 °C 29.81in /  1009.4hPa SW 2.0mph /  3.2km/h 14.0mph /  22.5km/h 60% 0.00in /  0mm
18:00 55.9 °F /  13.3 °C 42.2 °F /  5.7 °C 29.81in /  1009.4hPa SW 5.0mph /  8km/h 10.0mph /  16.1km/h 60% 0.00in /  0mm
18:05 55.9 °F /  13.3 °C 42.7 °F /  5.9 °C 29.81in /  1009.4hPa SSW 4.0mph /  6.4km/h 12.0mph /  19.3km/h 61% 0.00in /  0mm
18:10 55.8 °F /  13.2 °C 42.6 °F /  5.9 °C 29.81in /  1009.4hPa SSW 4.0mph /  6.4km/h 12.0mph /  19.3km/h 61% 0.00in /  0mm
18:15 55.7 °F /  13.2 °C 42.5 °F /  5.8 °C 29.81in /  1009.4hPa Calm   10.0mph /  16.1km/h 61% 0.00in /  0mm
18:20 55.6 °F /  13.1 °C 42.8 °F /  6 °C 29.81in /  1009.4hPa SSW 2.0mph /  3.2km/h 9.0mph /  14.5km/h 62% 0.00in /  0mm
18:25 55.4 °F /  13 °C 42.6 °F /  5.9 °C 29.81in /  1009.4hPa SSW 3.0mph /  4.8km/h 9.0mph /  14.5km/h 62% 0.00in /  0mm
18:30 55.4 °F /  13 °C 43.0 °F /  6.1 °C 29.81in /  1009.4hPa SW 2.0mph /  3.2km/h 10.0mph /  16.1km/h 63% 0.00in /  0mm
18:35 55.5 °F /  13.1 °C 42.7 °F /  5.9 °C 29.80in /  1009hPa SSW 3.0mph /  4.8km/h 10.0mph /  16.1km/h 62% 0.00in /  0mm
18:40 55.6 °F /  13.1 °C 42.8 °F /  6 °C 29.80in /  1009hPa SW 6.0mph /  9.7km/h 11.0mph /  17.7km/h 62% 0.00in /  0mm
18:45 55.8 °F /  13.2 °C 43.0 °F /  6.1 °C 29.81in /  1009.4hPa SSW 3.0mph /  4.8km/h 11.0mph /  17.7km/h 62% 0.00in /  0mm
18:55 55.9 °F /  13.3 °C 43.1 °F /  6.2 °C 29.81in /  1009.4hPa SW 2.0mph /  3.2km/h 15.0mph /  24.1km/h 62% 0.00in /  0mm
19:00 55.6 °F /  13.1 °C 44.0 °F /  6.7 °C 29.82in /  1009.7hPa SW 2.0mph /  3.2km/h 10.0mph /  16.1km/h 65% 0.00in /  0mm
19:05 54.4 °F /  12.4 °C 44.8 °F /  7.1 °C 29.85in /  1010.7hPa WSW 15.0mph /  24.1km/h 23.0mph /  37km/h 70% 0.01in /  0.3mm
19:10 51.2 °F /  10.7 °C 44.9 °F /  7.2 °C 29.86in /  1011.1hPa WSW 11.0mph /  17.7km/h 23.0mph /  37km/h 79% 0.08in /  2mm
19:15 49.7 °F /  9.8 °C 44.4 °F /  6.9 °C 29.86in /  1011.1hPa West 6.0mph /  9.7km/h 23.0mph /  37km/h 82% 0.10in /  2.5mm
19:20 49.1 °F /  9.5 °C 44.8 °F /  7.1 °C 29.86in /  1011.1hPa WNW 9.0mph /  14.5km/h 14.0mph /  22.5km/h 85% 0.12in /  3mm
19:25 48.8 °F /  9.3 °C 45.1 °F /  7.3 °C 29.86in /  1011.1hPa West 6.0mph /  9.7km/h 14.0mph /  22.5km/h 87% 0.14in /  3.6mm
19:30 48.7 °F /  9.3 °C 45.3 °F /  7.4 °C 29.86in /  1011.1hPa WNW 6.0mph /  9.7km/h 13.0mph /  20.9km/h 88% 0.16in /  4.1mm
19:35 48.6 °F /  9.2 °C 45.5 °F /  7.5 °C 29.86in /  1011.1hPa West 4.0mph /  6.4km/h 13.0mph /  20.9km/h 89% 0.18in /  4.6mm
19:40 48.6 °F /  9.2 °C 45.5 °F /  7.5 °C 29.86in /  1011.1hPa WSW 4.0mph /  6.4km/h 10.0mph /  16.1km/h 89% 0.20in /  5.1mm
19:45 48.5 °F /  9.2 °C 45.4 °F /  7.4 °C 29.86in /  1011.1hPa West 2.0mph /  3.2km/h 9.0mph /  14.5km/h 89% 0.22in /  5.6mm
19:50 48.4 °F /  9.1 °C 45.6 °F /  7.6 °C 29.86in /  1011.1hPa SW 4.0mph /  6.4km/h 9.0mph /  14.5km/h 90% 0.23in /  5.8mm
19:55 48.2 °F /  9 °C 45.4 °F /  7.4 °C 29.86in /  1011.1hPa WSW 4.0mph /  6.4km/h 11.0mph /  17.7km/h 90% 0.24in /  6.1mm
20:00 48.0 °F /  8.9 °C 45.2 °F /  7.3 °C 29.86in /  1011.1hPa SSW 2.0mph /  3.2km/h 11.0mph /  17.7km/h 90% 0.25in /  6.4mm
20:05 47.9 °F /  8.8 °C 45.1 °F /  7.3 °C 29.86in /  1011.1hPa Calm   8.0mph /  12.9km/h 90% 0.26in /  6.6mm
20:10 47.8 °F /  8.8 °C 45.0 °F /  7.2 °C 29.86in /  1011.1hPa Calm   5.0mph /  8km/h 90% 0.27in /  6.9mm
20:20 47.8 °F /  8.8 °C 45.3 °F /  7.4 °C 29.85in /  1010.7hPa Calm   5.0mph /  8km/h 91% 0.29in /  7.4mm
20:25 47.8 °F /  8.8 °C 45.3 °F /  7.4 °C 29.85in /  1010.7hPa Calm   5.0mph /  8km/h 91% 0.30in /  7.6mm
20:30 47.8 °F /  8.8 °C 45.3 °F /  7.4 °C 29.85in /  1010.7hPa South 1.0mph /  1.6km/h 4.0mph /  6.4km/h 91% 0.30in /  7.6mm
20:35 47.7 °F /  8.7 °C 45.2 °F /  7.3 °C 29.85in /  1010.7hPa SE 1.0mph /  1.6km/h 5.0mph /  8km/h 91% 0.30in /  7.6mm
20:40 47.7 °F /  8.7 °C 45.2 °F /  7.3 °C 29.85in /  1010.7hPa SSE 2.0mph /  3.2km/h 6.0mph /  9.7km/h 91% 0.31in /  7.9mm
20:45 47.6 °F /  8.7 °C 45.1 °F /  7.3 °C 29.85in /  1010.7hPa SE 2.0mph /  3.2km/h 8.0mph /  12.9km/h 91% 0.31in /  7.9mm
20:50 47.5 °F /  8.6 °C 45.3 °F /  7.4 °C 29.85in /  1010.7hPa SSW 2.0mph /  3.2km/h 8.0mph /  12.9km/h 92% 0.32in /  8.1mm
20:55 47.3 °F /  8.5 °C 44.8 °F /  7.1 °C 29.85in /  1010.7hPa SSW 1.0mph /  1.6km/h 5.0mph /  8km/h 91% 0.32in /  8.1mm
21:00 47.2 °F /  8.4 °C 44.7 °F /  7.1 °C 29.85in /  1010.7hPa SSW 1.0mph /  1.6km/h 5.0mph /  8km/h 91% 0.32in /  8.1mm
21:05 47.1 °F /  8.4 °C 44.9 °F /  7.2 °C 29.85in /  1010.7hPa Calm   3.0mph /  4.8km/h 92% 0.32in /  8.1mm
21:10 47.0 °F /  8.3 °C 44.8 °F /  7.1 °C 29.85in /  1010.7hPa SSW 2.0mph /  3.2km/h 4.0mph /  6.4km/h 92% 0.32in /  8.1mm
21:15 47.0 °F /  8.3 °C 44.8 °F /  7.1 °C 29.85in /  1010.7hPa SSW 1.0mph /  1.6km/h 4.0mph /  6.4km/h 92% 0.32in /  8.1mm
21:20 46.9 °F /  8.3 °C 44.7 °F /  7.1 °C 29.85in /  1010.7hPa Calm   5.0mph /  8km/h 92% 0.32in /  8.1mm
21:25 46.9 °F /  8.3 °C 44.7 °F /  7.1 °C 29.86in /  1011.1hPa SW 1.0mph /  1.6km/h 5.0mph /  8km/h 92% 0.32in /  8.1mm
21:30 46.8 °F /  8.2 °C 44.6 °F /  7 °C 29.86in /  1011.1hPa Calm   5.0mph /  8km/h 92% 0.32in /  8.1mm
21:35 46.7 °F /  8.2 °C 44.5 °F /  6.9 °C 29.86in /  1011.1hPa SSW 1.0mph /  1.6km/h 5.0mph /  8km/h 92% 0.32in /  8.1mm
21:40 46.7 °F /  8.2 °C 44.8 °F /  7.1 °C 29.86in /  1011.1hPa SSW 1.0mph /  1.6km/h 5.0mph /  8km/h 93% 0.32in /  8.1mm
21:45 46.6 °F /  8.1 °C 44.7 °F /  7.1 °C 29.86in /  1011.1hPa Calm   4.0mph /  6.4km/h 93% 0.32in /  8.1mm
21:50 46.5 °F /  8.1 °C 44.6 °F /  7 °C 29.86in /  1011.1hPa Calm     93% 0.32in /  8.1mm
21:55 46.4 °F /  8 °C 44.5 °F /  6.9 °C 29.85in /  1010.7hPa Calm     93% 0.32in /  8.1mm
22:00 46.4 °F /  8 °C 44.5 °F /  6.9 °C 29.85in /  1010.7hPa SSW 1.0mph /  1.6km/h 4.0mph /  6.4km/h 93% 0.32in /  8.1mm
22:05 46.4 °F /  8 °C 44.5 °F /  6.9 °C 29.85in /  1010.7hPa Calm   5.0mph /  8km/h 93% 0.32in /  8.1mm
22:10 46.3 °F /  7.9 °C 44.4 °F /  6.9 °C 29.85in /  1010.7hPa Calm   5.0mph /  8km/h 93% 0.32in /  8.1mm
22:15 46.3 °F /  7.9 °C 44.4 °F /  6.9 °C 29.85in /  1010.7hPa Calm   3.0mph /  4.8km/h 93% 0.32in /  8.1mm
22:20 46.3 °F /  7.9 °C 44.4 °F /  6.9 °C 29.85in /  1010.7hPa Calm     93% 0.32in /  8.1mm
22:25 46.3 °F /  7.9 °C 44.4 °F /  6.9 °C 29.85in /  1010.7hPa Calm   5.0mph /  8km/h 93% 0.32in /  8.1mm
22:30 46.3 °F /  7.9 °C 44.4 °F /  6.9 °C 29.85in /  1010.7hPa Calm   5.0mph /  8km/h 93% 0.32in /  8.1mm
22:40 46.3 °F /  7.9 °C 44.7 °F /  7.1 °C 29.86in /  1011.1hPa SSW 3.0mph /  4.8km/h 5.0mph /  8km/h 94% 0.32in /  8.1mm
22:45 46.3 °F /  7.9 °C 44.7 °F /  7.1 °C 29.86in /  1011.1hPa WSW 1.0mph /  1.6km/h 5.0mph /  8km/h 94% 0.32in /  8.1mm
22:50 46.3 °F /  7.9 °C 44.7 °F /  7.1 °C 29.86in /  1011.1hPa WSW 1.0mph /  1.6km/h 5.0mph /  8km/h 94% 0.32in /  8.1mm
22:55 46.4 °F /  8 °C 44.8 °F /  7.1 °C 29.87in /  1011.4hPa SW 5.0mph /  8km/h 11.0mph /  17.7km/h 94% 0.34in /  8.6mm
23:00 46.5 °F /  8.1 °C 44.9 °F /  7.2 °C 29.86in /  1011.1hPa SSW 5.0mph /  8km/h 12.0mph /  19.3km/h 94% 0.35in /  8.9mm
23:05 46.4 °F /  8 °C 44.8 °F /  7.1 °C 29.86in /  1011.1hPa SSW 5.0mph /  8km/h 12.0mph /  19.3km/h 94% 0.35in /  8.9mm
23:10 46.3 °F /  7.9 °C 44.7 °F /  7.1 °C 29.86in /  1011.1hPa SSW 5.0mph /  8km/h 13.0mph /  20.9km/h 94% 0.35in /  8.9mm
23:15 46.1 °F /  7.8 °C 44.2 °F /  6.8 °C 29.85in /  1010.7hPa SSW 6.0mph /  9.7km/h 13.0mph /  20.9km/h 93% 0.35in /  8.9mm
23:20 46.1 °F /  7.8 °C 44.2 °F /  6.8 °C 29.86in /  1011.1hPa SW 5.0mph /  8km/h 11.0mph /  17.7km/h 93% 0.35in /  8.9mm
23:25 46.1 °F /  7.8 °C 44.2 °F /  6.8 °C 29.86in /  1011.1hPa SW 4.0mph /  6.4km/h 10.0mph /  16.1km/h 93% 0.35in /  8.9mm
23:30 46.2 °F /  7.9 °C 44.3 °F /  6.8 °C 29.86in /  1011.1hPa SSW 6.0mph /  9.7km/h 14.0mph /  22.5km/h 93% 0.35in /  8.9mm
23:35 46.2 °F /  7.9 °C 44.3 °F /  6.8 °C 29.85in /  1010.7hPa SSW 5.0mph /  8km/h 14.0mph /  22.5km/h 93% 0.35in /  8.9mm
23:40 46.2 °F /  7.9 °C 44.3 °F /  6.8 °C 29.85in /  1010.7hPa SSW 6.0mph /  9.7km/h 11.0mph /  17.7km/h 93% 0.35in /  8.9mm
23:45 46.1 °F /  7.8 °C 44.2 °F /  6.8 °C 29.85in /  1010.7hPa SSW 4.0mph /  6.4km/h 12.0mph /  19.3km/h 93% 0.35in /  8.9mm
23:50 46.0 °F /  7.8 °C 44.1 °F /  6.7 °C 29.85in /  1010.7hPa SSW 2.0mph /  3.2km/h 12.0mph /  19.3km/h 93% 0.35in /  8.9mm
23:55 46.0 °F /  7.8 °C 44.1 °F /  6.7 °C 29.85in /  1010.7hPa SSW 3.0mph /  4.8km/h 9.0mph /  14.5km/h 93% 0.35in /  8.9mm
Westford Weather
Compliments of Weather Underground

 
 
Current Radar Loop:

Copyright © WestfordWeather.net 2007-2014. All rights reserved.